sensor_id;sensor_type;location;lat;lon;timestamp;temperature;humidity
65462;DHT22;53236;43.666;18.444;2024-02-26T00:02:23;7.00;99.90
65462;DHT22;53236;43.666;18.444;2024-02-26T00:04:49;7.10;99.90
65462;DHT22;53236;43.666;18.444;2024-02-26T00:07:16;7.20;99.90
65462;DHT22;53236;43.666;18.444;2024-02-26T00:09:42;7.30;99.90
65462;DHT22;53236;43.666;18.444;2024-02-26T00:12:07;7.40;99.90
65462;DHT22;53236;43.666;18.444;2024-02-26T00:14:33;7.40;99.90
65462;DHT22;53236;43.666;18.444;2024-02-26T00:16:59;7.40;99.90
65462;DHT22;53236;43.666;18.444;2024-02-26T00:19:25;7.50;99.90
65462;DHT22;53236;43.666;18.444;2024-02-26T00:21:51;7.40;99.90
65462;DHT22;53236;43.666;18.444;2024-02-26T00:24:19;7.30;99.90
65462;DHT22;53236;43.666;18.444;2024-02-26T00:26:44;7.20;99.90
65462;DHT22;53236;43.666;18.444;2024-02-26T00:29:10;7.20;99.90
65462;DHT22;53236;43.666;18.444;2024-02-26T00:31:37;7.20;99.90
65462;DHT22;53236;43.666;18.444;2024-02-26T00:34:03;7.20;99.90
65462;DHT22;53236;43.666;18.444;2024-02-26T00:36:29;7.30;99.90
65462;DHT22;53236;43.666;18.444;2024-02-26T00:38:55;7.30;99.90
65462;DHT22;53236;43.666;18.444;2024-02-26T00:41:21;7.30;99.90
65462;DHT22;53236;43.666;18.444;2024-02-26T00:43:47;7.30;99.90
65462;DHT22;53236;43.666;18.444;2024-02-26T00:46:13;7.20;99.90
65462;DHT22;53236;43.666;18.444;2024-02-26T00:48:38;7.20;99.90
65462;DHT22;53236;43.666;18.444;2024-02-26T00:51:05;7.20;99.90
65462;DHT22;53236;43.666;18.444;2024-02-26T00:53:31;7.40;99.90
65462;DHT22;53236;43.666;18.444;2024-02-26T00:55:57;7.40;99.90
65462;DHT22;53236;43.666;18.444;2024-02-26T00:58:25;7.50;99.90
65462;DHT22;53236;43.666;18.444;2024-02-26T01:00:50;7.60;99.90
65462;DHT22;53236;43.666;18.444;2024-02-26T01:03:17;7.70;99.90
65462;DHT22;53236;43.666;18.444;2024-02-26T01:05:43;7.80;99.90
65462;DHT22;53236;43.666;18.444;2024-02-26T01:08:09;7.90;99.90
65462;DHT22;53236;43.666;18.444;2024-02-26T01:10:34;8.00;99.90
65462;DHT22;53236;43.666;18.444;2024-02-26T01:13:01;8.10;99.90
65462;DHT22;53236;43.666;18.444;2024-02-26T01:15:26;8.30;99.90
65462;DHT22;53236;43.666;18.444;2024-02-26T01:17:52;8.30;99.90
65462;DHT22;53236;43.666;18.444;2024-02-26T01:20:18;8.40;99.90
65462;DHT22;53236;43.666;18.444;2024-02-26T01:22:44;8.30;99.90
65462;DHT22;53236;43.666;18.444;2024-02-26T01:25:10;8.30;99.90
65462;DHT22;53236;43.666;18.444;2024-02-26T01:27:36;8.10;99.90
65462;DHT22;53236;43.666;18.444;2024-02-26T01:30:03;8.10;99.90
65462;DHT22;53236;43.666;18.444;2024-02-26T01:32:30;8.00;99.90
65462;DHT22;53236;43.666;18.444;2024-02-26T01:34:56;7.90;99.90
65462;DHT22;53236;43.666;18.444;2024-02-26T01:37:21;7.80;99.90
65462;DHT22;53236;43.666;18.444;2024-02-26T01:39:47;7.80;99.90
65462;DHT22;53236;43.666;18.444;2024-02-26T01:42:13;7.70;99.90
65462;DHT22;53236;43.666;18.444;2024-02-26T01:44:39;7.70;99.90
65462;DHT22;53236;43.666;18.444;2024-02-26T01:47:07;7.60;99.90
65462;DHT22;53236;43.666;18.444;2024-02-26T01:49:35;7.60;99.90
65462;DHT22;53236;43.666;18.444;2024-02-26T01:52:02;7.50;99.90
65462;DHT22;53236;43.666;18.444;2024-02-26T01:54:29;7.50;99.90
65462;DHT22;53236;43.666;18.444;2024-02-26T01:56:55;7.50;99.90
65462;DHT22;53236;43.666;18.444;2024-02-26T01:59:22;7.40;99.90
65462;DHT22;53236;43.666;18.444;2024-02-26T02:01:51;7.30;99.90
65462;DHT22;53236;43.666;18.444;2024-02-26T02:04:18;7.30;99.90
65462;DHT22;53236;43.666;18.444;2024-02-26T02:06:45;7.20;99.90
65462;DHT22;53236;43.666;18.444;2024-02-26T02:09:11;7.20;99.90
65462;DHT22;53236;43.666;18.444;2024-02-26T02:11:37;7.20;99.90
65462;DHT22;53236;43.666;18.444;2024-02-26T02:14:03;7.20;99.90
65462;DHT22;53236;43.666;18.444;2024-02-26T02:16:29;7.20;99.90
65462;DHT22;53236;43.666;18.444;2024-02-26T02:18:55;7.20;99.90
65462;DHT22;53236;43.666;18.444;2024-02-26T02:21:20;7.20;99.90
65462;DHT22;53236;43.666;18.444;2024-02-26T02:23:46;7.20;99.90
65462;DHT22;53236;43.666;18.444;2024-02-26T02:26:14;7.20;99.90
65462;DHT22;53236;43.666;18.444;2024-02-26T02:28:41;7.20;99.90
65462;DHT22;53236;43.666;18.444;2024-02-26T02:31:07;7.20;99.90
65462;DHT22;53236;43.666;18.444;2024-02-26T02:33:34;7.20;99.90
65462;DHT22;53236;43.666;18.444;2024-02-26T02:36:00;7.20;99.90
65462;DHT22;53236;43.666;18.444;2024-02-26T02:38:26;7.20;99.90
65462;DHT22;53236;43.666;18.444;2024-02-26T02:40:52;7.20;99.90
65462;DHT22;53236;43.666;18.444;2024-02-26T02:43:18;7.20;99.90
65462;DHT22;53236;43.666;18.444;2024-02-26T02:45:43;7.10;99.90
65462;DHT22;53236;43.666;18.444;2024-02-26T02:48:10;7.20;99.90
65462;DHT22;53236;43.666;18.444;2024-02-26T02:50:36;7.10;99.90
65462;DHT22;53236;43.666;18.444;2024-02-26T02:53:02;7.10;99.90
65462;DHT22;53236;43.666;18.444;2024-02-26T02:55:28;7.00;99.90
65462;DHT22;53236;43.666;18.444;2024-02-26T02:57:54;7.00;99.90
65462;DHT22;53236;43.666;18.444;2024-02-26T03:00:20;6.90;99.90
65462;DHT22;53236;43.666;18.444;2024-02-26T03:02:48;6.70;99.90
65462;DHT22;53236;43.666;18.444;2024-02-26T03:05:14;6.70;99.90
65462;DHT22;53236;43.666;18.444;2024-02-26T03:07:40;6.60;99.90
65462;DHT22;53236;43.666;18.444;2024-02-26T03:10:06;6.50;99.90
65462;DHT22;53236;43.666;18.444;2024-02-26T03:12:33;6.40;99.90
65462;DHT22;53236;43.666;18.444;2024-02-26T03:14:59;6.30;99.90
65462;DHT22;53236;43.666;18.444;2024-02-26T03:17:28;6.20;99.90
65462;DHT22;53236;43.666;18.444;2024-02-26T03:19:54;6.30;99.90
65462;DHT22;53236;43.666;18.444;2024-02-26T03:22:20;6.20;99.90
65462;DHT22;53236;43.666;18.444;2024-02-26T03:24:46;6.20;99.90
65462;DHT22;53236;43.666;18.444;2024-02-26T03:27:12;6.20;99.90
65462;DHT22;53236;43.666;18.444;2024-02-26T03:29:38;6.30;99.90
65462;DHT22;53236;43.666;18.444;2024-02-26T03:32:05;6.20;99.90
65462;DHT22;53236;43.666;18.444;2024-02-26T03:34:32;6.20;99.90
65462;DHT22;53236;43.666;18.444;2024-02-26T03:37:00;6.20;99.90
65462;DHT22;53236;43.666;18.444;2024-02-26T03:39:26;6.20;99.90
65462;DHT22;53236;43.666;18.444;2024-02-26T03:41:51;6.20;99.90
65462;DHT22;53236;43.666;18.444;2024-02-26T03:44:17;6.20;99.90
65462;DHT22;53236;43.666;18.444;2024-02-26T03:46:43;6.20;99.90
65462;DHT22;53236;43.666;18.444;2024-02-26T03:49:09;6.10;99.90
65462;DHT22;53236;43.666;18.444;2024-02-26T03:51:35;6.20;99.90
65462;DHT22;53236;43.666;18.444;2024-02-26T03:54:01;6.20;99.90
65462;DHT22;53236;43.666;18.444;2024-02-26T03:56:27;6.20;99.90
65462;DHT22;53236;43.666;18.444;2024-02-26T03:58:53;6.30;99.90
65462;DHT22;53236;43.666;18.444;2024-02-26T04:01:19;6.30;99.90
65462;DHT22;53236;43.666;18.444;2024-02-26T04:03:45;6.30;99.90
65462;DHT22;53236;43.666;18.444;2024-02-26T04:06:11;6.30;99.90
65462;DHT22;53236;43.666;18.444;2024-02-26T04:08:40;6.30;99.90
65462;DHT22;53236;43.666;18.444;2024-02-26T04:11:06;6.30;99.90
65462;DHT22;53236;43.666;18.444;2024-02-26T04:13:36;6.30;99.90
65462;DHT22;53236;43.666;18.444;2024-02-26T04:16:05;6.30;99.90
65462;DHT22;53236;43.666;18.444;2024-02-26T04:18:32;6.30;99.90
65462;DHT22;53236;43.666;18.444;2024-02-26T04:20:58;6.30;99.90
65462;DHT22;53236;43.666;18.444;2024-02-26T04:23:24;6.30;99.90
65462;DHT22;53236;43.666;18.444;2024-02-26T04:25:50;6.30;99.90
65462;DHT22;53236;43.666;18.444;2024-02-26T04:28:16;6.30;99.90
65462;DHT22;53236;43.666;18.444;2024-02-26T04:30:42;6.30;99.90
65462;DHT22;53236;43.666;18.444;2024-02-26T04:33:07;6.30;99.90
65462;DHT22;53236;43.666;18.444;2024-02-26T04:35:33;6.30;99.90
65462;DHT22;53236;43.666;18.444;2024-02-26T04:38:01;6.30;99.90
65462;DHT22;53236;43.666;18.444;2024-02-26T04:40:26;6.30;99.90
65462;DHT22;53236;43.666;18.444;2024-02-26T04:42:52;6.40;99.90
65462;DHT22;53236;43.666;18.444;2024-02-26T04:45:18;6.50;99.90
65462;DHT22;53236;43.666;18.444;2024-02-26T04:47:44;6.50;99.90
65462;DHT22;53236;43.666;18.444;2024-02-26T04:50:10;6.50;99.90
65462;DHT22;53236;43.666;18.444;2024-02-26T04:52:36;6.40;99.90
65462;DHT22;53236;43.666;18.444;2024-02-26T04:55:02;6.50;99.90
65462;DHT22;53236;43.666;18.444;2024-02-26T04:57:28;6.40;99.90
65462;DHT22;53236;43.666;18.444;2024-02-26T04:59:54;6.40;99.90
65462;DHT22;53236;43.666;18.444;2024-02-26T05:02:21;6.40;99.90
65462;DHT22;53236;43.666;18.444;2024-02-26T05:04:46;6.40;99.90
65462;DHT22;53236;43.666;18.444;2024-02-26T05:07:12;6.40;99.90
65462;DHT22;53236;43.666;18.444;2024-02-26T05:09:39;6.40;99.90
65462;DHT22;53236;43.666;18.444;2024-02-26T05:12:05;6.40;99.90
65462;DHT22;53236;43.666;18.444;2024-02-26T05:14:31;6.40;99.90
65462;DHT22;53236;43.666;18.444;2024-02-26T05:16:57;6.40;99.90
65462;DHT22;53236;43.666;18.444;2024-02-26T05:19:23;6.30;99.90
65462;DHT22;53236;43.666;18.444;2024-02-26T05:21:48;6.30;99.90
65462;DHT22;53236;43.666;18.444;2024-02-26T05:24:16;6.30;99.90
65462;DHT22;53236;43.666;18.444;2024-02-26T05:26:45;6.30;99.90
65462;DHT22;53236;43.666;18.444;2024-02-26T05:29:11;6.30;99.90
65462;DHT22;53236;43.666;18.444;2024-02-26T05:31:37;6.30;99.90
65462;DHT22;53236;43.666;18.444;2024-02-26T05:34:02;6.30;99.90
65462;DHT22;53236;43.666;18.444;2024-02-26T05:36:28;6.30;99.90
65462;DHT22;53236;43.666;18.444;2024-02-26T05:38:59;6.30;99.90
65462;DHT22;53236;43.666;18.444;2024-02-26T05:41:25;6.30;99.90
65462;DHT22;53236;43.666;18.444;2024-02-26T05:43:52;6.30;99.90
65462;DHT22;53236;43.666;18.444;2024-02-26T05:46:19;6.40;99.90
65462;DHT22;53236;43.666;18.444;2024-02-26T05:48:51;6.40;99.90
65462;DHT22;53236;43.666;18.444;2024-02-26T05:51:17;6.50;99.90
65462;DHT22;53236;43.666;18.444;2024-02-26T05:53:43;6.50;99.90
65462;DHT22;53236;43.666;18.444;2024-02-26T05:56:09;6.60;99.90
65462;DHT22;53236;43.666;18.444;2024-02-26T05:58:34;6.70;99.90
65462;DHT22;53236;43.666;18.444;2024-02-26T06:01:00;6.70;99.90
65462;DHT22;53236;43.666;18.444;2024-02-26T06:03:26;6.80;99.90
65462;DHT22;53236;43.666;18.444;2024-02-26T06:05:52;6.80;99.90
65462;DHT22;53236;43.666;18.444;2024-02-26T06:08:18;6.90;99.90
65462;DHT22;53236;43.666;18.444;2024-02-26T06:10:44;7.10;99.90
65462;DHT22;53236;43.666;18.444;2024-02-26T06:13:10;7.20;99.90
65462;DHT22;53236;43.666;18.444;2024-02-26T06:15:35;7.40;99.90
65462;DHT22;53236;43.666;18.444;2024-02-26T06:18:01;7.50;99.90
65462;DHT22;53236;43.666;18.444;2024-02-26T06:20:27;7.70;99.90
65462;DHT22;53236;43.666;18.444;2024-02-26T06:22:53;8.10;99.90
65462;DHT22;53236;43.666;18.444;2024-02-26T06:25:18;8.70;99.90
65462;DHT22;53236;43.666;18.444;2024-02-26T06:27:44;9.40;99.90
65462;DHT22;53236;43.666;18.444;2024-02-26T06:30:10;10.00;99.90
65462;DHT22;53236;43.666;18.444;2024-02-26T06:32:37;11.00;99.90
65462;DHT22;53236;43.666;18.444;2024-02-26T06:35:03;12.20;99.90
65462;DHT22;53236;43.666;18.444;2024-02-26T06:37:34;13.50;99.90
65462;DHT22;53236;43.666;18.444;2024-02-26T06:40:00;14.40;99.90
65462;DHT22;53236;43.666;18.444;2024-02-26T06:42:29;15.20;99.90
65462;DHT22;53236;43.666;18.444;2024-02-26T06:44:56;15.80;88.00
65462;DHT22;53236;43.666;18.444;2024-02-26T06:47:22;16.50;91.20
65462;DHT22;53236;43.666;18.444;2024-02-26T06:49:47;16.90;77.20
65462;DHT22;53236;43.666;18.444;2024-02-26T06:52:13;17.50;80.50
65462;DHT22;53236;43.666;18.444;2024-02-26T06:54:39;17.80;77.70
65462;DHT22;53236;43.666;18.444;2024-02-26T06:57:05;18.10;69.50
65462;DHT22;53236;43.666;18.444;2024-02-26T06:59:30;17.40;70.30
65462;DHT22;53236;43.666;18.444;2024-02-26T07:01:56;18.30;71.10
65462;DHT22;53236;43.666;18.444;2024-02-26T07:04:22;18.80;68.70
65462;DHT22;53236;43.666;18.444;2024-02-26T07:06:48;19.50;69.00
65462;DHT22;53236;43.666;18.444;2024-02-26T07:09:14;19.70;61.60
65462;DHT22;53236;43.666;18.444;2024-02-26T07:11:39;19.50;62.10
65462;DHT22;53236;43.666;18.444;2024-02-26T07:14:09;18.10;65.60
65462;DHT22;53236;43.666;18.444;2024-02-26T07:16:36;17.30;68.20
65462;DHT22;53236;43.666;18.444;2024-02-26T07:19:03;17.30;69.10
65462;DHT22;53236;43.666;18.444;2024-02-26T07:21:29;17.60;70.10
65462;DHT22;53236;43.666;18.444;2024-02-26T07:23:55;18.70;66.80
65462;DHT22;53236;43.666;18.444;2024-02-26T07:26:20;19.20;66.10
65462;DHT22;53236;43.666;18.444;2024-02-26T07:28:46;20.10;66.00
65462;DHT22;53236;43.666;18.444;2024-02-26T07:31:12;21.40;63.30
65462;DHT22;53236;43.666;18.444;2024-02-26T07:33:38;21.60;57.40
65462;DHT22;53236;43.666;18.444;2024-02-26T07:36:04;22.50;54.20
65462;DHT22;53236;43.666;18.444;2024-02-26T07:38:30;23.50;54.10
65462;DHT22;53236;43.666;18.444;2024-02-26T07:40:56;24.20;52.70
65462;DHT22;53236;43.666;18.444;2024-02-26T07:43:22;25.30;52.10
65462;DHT22;53236;43.666;18.444;2024-02-26T07:45:48;25.10;49.10
65462;DHT22;53236;43.666;18.444;2024-02-26T07:48:14;24.80;51.10
65462;DHT22;53236;43.666;18.444;2024-02-26T07:50:40;24.90;48.80
65462;DHT22;53236;43.666;18.444;2024-02-26T07:53:06;26.00;50.00
65462;DHT22;53236;43.666;18.444;2024-02-26T07:55:32;26.90;48.80
65462;DHT22;53236;43.666;18.444;2024-02-26T07:57:57;27.10;47.70
65462;DHT22;53236;43.666;18.444;2024-02-26T08:00:23;27.30;47.20
65462;DHT22;53236;43.666;18.444;2024-02-26T08:02:49;27.80;45.00
65462;DHT22;53236;43.666;18.444;2024-02-26T08:05:15;27.80;46.30
65462;DHT22;53236;43.666;18.444;2024-02-26T08:07:41;27.40;45.40
65462;DHT22;53236;43.666;18.444;2024-02-26T08:10:07;27.10;45.40
65462;DHT22;53236;43.666;18.444;2024-02-26T08:12:33;27.70;44.00
65462;DHT22;53236;43.666;18.444;2024-02-26T08:14:59;27.30;46.60
65462;DHT22;53236;43.666;18.444;2024-02-26T08:17:25;27.80;45.70
65462;DHT22;53236;43.666;18.444;2024-02-26T08:19:52;28.60;41.90
65462;DHT22;53236;43.666;18.444;2024-02-26T08:22:18;27.80;44.30
65462;DHT22;53236;43.666;18.444;2024-02-26T08:24:44;28.00;43.50
65462;DHT22;53236;43.666;18.444;2024-02-26T08:27:10;28.60;42.30
65462;DHT22;53236;43.666;18.444;2024-02-26T08:29:36;28.20;39.70
65462;DHT22;53236;43.666;18.444;2024-02-26T08:32:02;27.80;41.30
65462;DHT22;53236;43.666;18.444;2024-02-26T08:34:27;28.20;40.30
65462;DHT22;53236;43.666;18.444;2024-02-26T08:36:53;28.70;42.10
65462;DHT22;53236;43.666;18.444;2024-02-26T08:39:19;28.60;40.00
65462;DHT22;53236;43.666;18.444;2024-02-26T08:41:45;28.20;41.70
65462;DHT22;53236;43.666;18.444;2024-02-26T08:44:11;27.50;40.30
65462;DHT22;53236;43.666;18.444;2024-02-26T08:46:37;26.20;42.50
65462;DHT22;53236;43.666;18.444;2024-02-26T08:49:03;24.00;44.00
65462;DHT22;53236;43.666;18.444;2024-02-26T08:51:29;22.90;47.60
65462;DHT22;53236;43.666;18.444;2024-02-26T08:53:55;22.60;47.40
65462;DHT22;53236;43.666;18.444;2024-02-26T08:56:21;21.70;48.30
65462;DHT22;53236;43.666;18.444;2024-02-26T08:58:47;21.30;49.20
65462;DHT22;53236;43.666;18.444;2024-02-26T09:01:17;20.80;51.20
65462;DHT22;53236;43.666;18.444;2024-02-26T09:03:43;21.90;47.90
65462;DHT22;53236;43.666;18.444;2024-02-26T09:06:08;23.10;48.30
65462;DHT22;53236;43.666;18.444;2024-02-26T09:08:34;23.60;45.80
65462;DHT22;53236;43.666;18.444;2024-02-26T09:11:02;24.00;44.30
65462;DHT22;53236;43.666;18.444;2024-02-26T09:13:29;24.00;44.90
65462;DHT22;53236;43.666;18.444;2024-02-26T09:15:54;24.60;44.20
65462;DHT22;53236;43.666;18.444;2024-02-26T09:18:20;24.10;43.80
65462;DHT22;53236;43.666;18.444;2024-02-26T09:20:46;25.10;43.70
65462;DHT22;53236;43.666;18.444;2024-02-26T09:23:12;26.10;43.40
65462;DHT22;53236;43.666;18.444;2024-02-26T09:25:37;27.10;41.40
65462;DHT22;53236;43.666;18.444;2024-02-26T09:28:04;26.80;40.90
65462;DHT22;53236;43.666;18.444;2024-02-26T09:30:29;27.40;40.60
65462;DHT22;53236;43.666;18.444;2024-02-26T09:32:55;27.30;39.10
65462;DHT22;53236;43.666;18.444;2024-02-26T09:35:21;27.30;40.00
65462;DHT22;53236;43.666;18.444;2024-02-26T09:37:47;27.80;38.60
65462;DHT22;53236;43.666;18.444;2024-02-26T09:40:14;28.00;40.80
65462;DHT22;53236;43.666;18.444;2024-02-26T09:42:44;28.40;39.50
65462;DHT22;53236;43.666;18.444;2024-02-26T09:45:21;29.20;36.80
65462;DHT22;53236;43.666;18.444;2024-02-26T09:47:48;28.70;38.60
65462;DHT22;53236;43.666;18.444;2024-02-26T09:50:17;29.20;39.60
65462;DHT22;53236;43.666;18.444;2024-02-26T09:52:43;29.60;39.70
65462;DHT22;53236;43.666;18.444;2024-02-26T09:55:09;29.90;36.60
65462;DHT22;53236;43.666;18.444;2024-02-26T09:57:44;30.30;36.80
65462;DHT22;53236;43.666;18.444;2024-02-26T10:00:16;29.00;36.70
65462;DHT22;53236;43.666;18.444;2024-02-26T10:02:45;28.30;37.30
65462;DHT22;53236;43.666;18.444;2024-02-26T10:05:12;27.90;37.50
65462;DHT22;53236;43.666;18.444;2024-02-26T10:07:40;27.50;38.90
65462;DHT22;53236;43.666;18.444;2024-02-26T10:10:08;28.30;38.40
65462;DHT22;53236;43.666;18.444;2024-02-26T10:12:34;29.00;37.90
65462;DHT22;53236;43.666;18.444;2024-02-26T10:15:00;28.90;36.10
65462;DHT22;53236;43.666;18.444;2024-02-26T10:17:26;28.60;37.30
65462;DHT22;53236;43.666;18.444;2024-02-26T10:19:52;28.70;37.20
65462;DHT22;53236;43.666;18.444;2024-02-26T10:22:22;29.20;36.60
65462;DHT22;53236;43.666;18.444;2024-02-26T10:24:48;28.30;37.60
65462;DHT22;53236;43.666;18.444;2024-02-26T10:27:15;29.60;38.80
65462;DHT22;53236;43.666;18.444;2024-02-26T10:29:41;30.70;38.00
65462;DHT22;53236;43.666;18.444;2024-02-26T10:32:09;30.70;35.20
65462;DHT22;53236;43.666;18.444;2024-02-26T10:34:35;31.00;34.80
65462;DHT22;53236;43.666;18.444;2024-02-26T10:37:04;29.60;36.20
65462;DHT22;53236;43.666;18.444;2024-02-26T10:39:30;29.40;35.60
65462;DHT22;53236;43.666;18.444;2024-02-26T10:41:56;28.40;36.50
65462;DHT22;53236;43.666;18.444;2024-02-26T10:44:21;27.20;37.50
65462;DHT22;53236;43.666;18.444;2024-02-26T10:46:47;26.70;39.10
65462;DHT22;53236;43.666;18.444;2024-02-26T10:49:17;27.40;38.40
65462;DHT22;53236;43.666;18.444;2024-02-26T10:51:46;28.50;39.70
65462;DHT22;53236;43.666;18.444;2024-02-26T10:54:15;29.30;36.90
65462;DHT22;53236;43.666;18.444;2024-02-26T10:56:42;30.00;36.80
65462;DHT22;53236;43.666;18.444;2024-02-26T10:59:10;29.50;36.40
65462;DHT22;53236;43.666;18.444;2024-02-26T11:01:39;29.60;36.60
65462;DHT22;53236;43.666;18.444;2024-02-26T11:04:07;28.70;37.90
65462;DHT22;53236;43.666;18.444;2024-02-26T11:06:34;28.60;35.40
65462;DHT22;53236;43.666;18.444;2024-02-26T11:09:02;28.90;36.50
65462;DHT22;53236;43.666;18.444;2024-02-26T11:11:30;28.60;37.00
65462;DHT22;53236;43.666;18.444;2024-02-26T11:13:57;27.40;37.00
65462;DHT22;53236;43.666;18.444;2024-02-26T11:16:26;25.30;39.40
65462;DHT22;53236;43.666;18.444;2024-02-26T11:18:53;24.20;41.10
65462;DHT22;53236;43.666;18.444;2024-02-26T11:21:21;22.70;43.20
65462;DHT22;53236;43.666;18.444;2024-02-26T11:23:57;22.10;45.50
65462;DHT22;53236;43.666;18.444;2024-02-26T11:26:24;21.60;45.60
65462;DHT22;53236;43.666;18.444;2024-02-26T11:28:51;21.10;47.40
65462;DHT22;53236;43.666;18.444;2024-02-26T11:31:17;20.80;48.20
65462;DHT22;53236;43.666;18.444;2024-02-26T11:33:51;20.60;48.40
65462;DHT22;53236;43.666;18.444;2024-02-26T11:36:17;20.60;49.20
65462;DHT22;53236;43.666;18.444;2024-02-26T11:38:46;20.30;48.30
65462;DHT22;53236;43.666;18.444;2024-02-26T11:41:15;20.30;50.10
65462;DHT22;53236;43.666;18.444;2024-02-26T11:46:42;19.60;49.90
65462;DHT22;53236;43.666;18.444;2024-02-26T11:51:55;18.70;52.30
65462;DHT22;53236;43.666;18.444;2024-02-26T11:59:50;17.30;55.40
65462;DHT22;53236;43.666;18.444;2024-02-26T12:02:49;17.20;56.20
65462;DHT22;53236;43.666;18.444;2024-02-26T12:05:18;17.00;57.30
65462;DHT22;53236;43.666;18.444;2024-02-26T12:07:46;16.90;56.20
65462;DHT22;53236;43.666;18.444;2024-02-26T12:10:27;16.70;56.60
65462;DHT22;53236;43.666;18.444;2024-02-26T12:13:12;16.60;57.00
65462;DHT22;53236;43.666;18.444;2024-02-26T12:15:43;16.50;57.90
65462;DHT22;53236;43.666;18.444;2024-02-26T12:18:15;16.20;58.20
65462;DHT22;53236;43.666;18.444;2024-02-26T12:20:41;16.00;57.30
65462;DHT22;53236;43.666;18.444;2024-02-26T12:23:07;15.90;58.30
65462;DHT22;53236;43.666;18.444;2024-02-26T12:25:33;15.70;58.50
65462;DHT22;53236;43.666;18.444;2024-02-26T12:28:00;15.80;59.00
65462;DHT22;53236;43.666;18.444;2024-02-26T12:30:26;15.80;59.40
65462;DHT22;53236;43.666;18.444;2024-02-26T12:32:55;15.90;60.30
65462;DHT22;53236;43.666;18.444;2024-02-26T12:35:23;15.90;59.30
65462;DHT22;53236;43.666;18.444;2024-02-26T12:37:50;16.00;58.70
65462;DHT22;53236;43.666;18.444;2024-02-26T12:40:17;16.00;58.80
65462;DHT22;53236;43.666;18.444;2024-02-26T12:42:43;16.00;58.80
65462;DHT22;53236;43.666;18.444;2024-02-26T12:45:11;15.90;59.40
65462;DHT22;53236;43.666;18.444;2024-02-26T12:47:41;16.00;59.60
65462;DHT22;53236;43.666;18.444;2024-02-26T12:50:09;15.90;59.30
65462;DHT22;53236;43.666;18.444;2024-02-26T12:52:43;15.90;59.80
65462;DHT22;53236;43.666;18.444;2024-02-26T12:55:13;15.90;60.00
65462;DHT22;53236;43.666;18.444;2024-02-26T12:57:40;16.00;59.40
65462;DHT22;53236;43.666;18.444;2024-02-26T13:00:12;15.80;59.80
65462;DHT22;53236;43.666;18.444;2024-02-26T13:02:41;15.70;60.30
65462;DHT22;53236;43.666;18.444;2024-02-26T13:05:10;15.80;61.40
65462;DHT22;53236;43.666;18.444;2024-02-26T13:07:44;15.80;60.20
65462;DHT22;53236;43.666;18.444;2024-02-26T13:10:10;15.90;59.60
65462;DHT22;53236;43.666;18.444;2024-02-26T13:12:44;16.00;59.00
65462;DHT22;53236;43.666;18.444;2024-02-26T13:15:14;16.10;59.10
65462;DHT22;53236;43.666;18.444;2024-02-26T13:17:40;16.20;58.80
65462;DHT22;53236;43.666;18.444;2024-02-26T13:20:08;16.30;60.00
65462;DHT22;53236;43.666;18.444;2024-02-26T13:22:35;16.30;59.50
65462;DHT22;53236;43.666;18.444;2024-02-26T13:25:01;16.40;58.50
65462;DHT22;53236;43.666;18.444;2024-02-26T13:27:30;16.40;58.10
65462;DHT22;53236;43.666;18.444;2024-02-26T13:30:09;16.50;60.60
65462;DHT22;53236;43.666;18.444;2024-02-26T13:32:37;16.70;59.10
65462;DHT22;53236;43.666;18.444;2024-02-26T13:35:12;16.70;58.80
65462;DHT22;53236;43.666;18.444;2024-02-26T13:37:39;16.60;58.70
65462;DHT22;53236;43.666;18.444;2024-02-26T13:40:06;16.50;58.60
65462;DHT22;53236;43.666;18.444;2024-02-26T13:42:32;16.50;58.60
65462;DHT22;53236;43.666;18.444;2024-02-26T13:44:58;16.40;58.70
65462;DHT22;53236;43.666;18.444;2024-02-26T13:47:24;16.10;59.10
65462;DHT22;53236;43.666;18.444;2024-02-26T13:49:50;16.10;60.00
65462;DHT22;53236;43.666;18.444;2024-02-26T13:52:16;16.00;59.70
65462;DHT22;53236;43.666;18.444;2024-02-26T13:54:41;15.80;60.30
65462;DHT22;53236;43.666;18.444;2024-02-26T13:57:07;15.70;61.30
65462;DHT22;53236;43.666;18.444;2024-02-26T13:59:34;15.60;61.70
65462;DHT22;53236;43.666;18.444;2024-02-26T14:01:59;15.50;61.10
65462;DHT22;53236;43.666;18.444;2024-02-26T14:04:25;15.40;61.00
65462;DHT22;53236;43.666;18.444;2024-02-26T14:06:51;15.40;61.10
65462;DHT22;53236;43.666;18.444;2024-02-26T14:09:17;15.30;60.90
65462;DHT22;53236;43.666;18.444;2024-02-26T14:11:45;15.10;61.50
65462;DHT22;53236;43.666;18.444;2024-02-26T14:14:11;14.90;61.20
65462;DHT22;53236;43.666;18.444;2024-02-26T14:16:36;14.80;62.20
65462;DHT22;53236;43.666;18.444;2024-02-26T14:19:02;14.70;61.10
65462;DHT22;53236;43.666;18.444;2024-02-26T14:21:29;14.50;62.40
65462;DHT22;53236;43.666;18.444;2024-02-26T14:23:57;14.50;62.50
65462;DHT22;53236;43.666;18.444;2024-02-26T14:26:23;14.50;62.80
65462;DHT22;53236;43.666;18.444;2024-02-26T14:28:49;14.40;64.00
65462;DHT22;53236;43.666;18.444;2024-02-26T14:31:18;14.30;64.60
65462;DHT22;53236;43.666;18.444;2024-02-26T14:33:44;14.40;64.40
65462;DHT22;53236;43.666;18.444;2024-02-26T14:36:11;14.40;64.90
65462;DHT22;53236;43.666;18.444;2024-02-26T14:38:37;14.40;64.90
65462;DHT22;53236;43.666;18.444;2024-02-26T14:41:04;14.40;64.80
65462;DHT22;53236;43.666;18.444;2024-02-26T14:43:31;14.40;64.20
65462;DHT22;53236;43.666;18.444;2024-02-26T14:46:01;14.40;62.90
65462;DHT22;53236;43.666;18.444;2024-02-26T14:48:27;14.30;63.80
65462;DHT22;53236;43.666;18.444;2024-02-26T14:50:53;14.40;63.10
65462;DHT22;53236;43.666;18.444;2024-02-26T14:53:19;14.30;63.70
65462;DHT22;53236;43.666;18.444;2024-02-26T14:55:45;14.20;63.60
65462;DHT22;53236;43.666;18.444;2024-02-26T14:58:10;14.20;63.30
65462;DHT22;53236;43.666;18.444;2024-02-26T15:00:38;14.00;64.20
65462;DHT22;53236;43.666;18.444;2024-02-26T15:03:04;13.90;64.80
65462;DHT22;53236;43.666;18.444;2024-02-26T15:05:29;13.80;65.20
65462;DHT22;53236;43.666;18.444;2024-02-26T15:07:55;13.70;66.10
65462;DHT22;53236;43.666;18.444;2024-02-26T15:10:21;13.60;67.10
65462;DHT22;53236;43.666;18.444;2024-02-26T15:12:47;13.50;66.70
65462;DHT22;53236;43.666;18.444;2024-02-26T15:15:13;13.40;67.70
65462;DHT22;53236;43.666;18.444;2024-02-26T15:17:39;13.40;68.60
65462;DHT22;53236;43.666;18.444;2024-02-26T15:20:05;13.30;69.00
65462;DHT22;53236;43.666;18.444;2024-02-26T15:22:33;13.30;68.80
65462;DHT22;53236;43.666;18.444;2024-02-26T15:24:59;13.30;69.30
65462;DHT22;53236;43.666;18.444;2024-02-26T15:27:25;13.30;69.90
65462;DHT22;53236;43.666;18.444;2024-02-26T15:29:50;13.20;69.70
65462;DHT22;53236;43.666;18.444;2024-02-26T15:32:24;13.20;70.10